createdAt,value
2023-02-15T00:00:07.074Z,995.43
2023-02-15T00:00:39.813Z,995.33
2023-02-15T00:01:10.034Z,995.33
2023-02-15T00:01:42.614Z,995.63
2023-02-15T00:02:13.925Z,995.63
2023-02-15T00:02:46.825Z,995.53
2023-02-15T00:03:17.852Z,995.53
2023-02-15T00:03:50.638Z,995.63
2023-02-15T00:04:21.891Z,995.33
2023-02-15T00:04:55.812Z,995.33
2023-02-15T00:05:26.148Z,995.53
2023-02-15T00:05:58.857Z,995.53
2023-02-15T00:06:29.816Z,995.73
2023-02-15T00:07:02.537Z,995.73
2023-02-15T00:07:33.960Z,995.63
2023-02-15T00:08:06.853Z,995.63
2023-02-15T00:08:37.879Z,995.43
2023-02-15T00:09:10.546Z,995.43
2023-02-15T00:09:41.864Z,995.53
2023-02-15T00:10:14.979Z,995.53
2023-02-15T00:10:45.914Z,995.33
2023-02-15T00:11:18.632Z,995.33
2023-02-15T00:11:49.888Z,995.53
2023-02-15T00:12:22.635Z,995.53
2023-02-15T00:12:53.952Z,995.53
2023-02-15T00:13:26.833Z,995.53
2023-02-15T00:13:57.930Z,995.53
2023-02-15T00:14:30.824Z,995.73
2023-02-15T00:15:03.535Z,995.73
2023-02-15T00:15:35.188Z,995.43
2023-02-15T00:16:05.905Z,995.43
2023-02-15T00:16:38.889Z,995.53
2023-02-15T00:17:09.858Z,995.53
2023-02-15T00:17:42.813Z,995.43
2023-02-15T00:18:13.825Z,995.43
2023-02-15T00:18:46.512Z,995.53
2023-02-15T00:19:17.959Z,995.53
2023-02-15T00:19:50.677Z,995.43
2023-02-15T00:20:22.212Z,995.43
2023-02-15T00:20:54.751Z,995.43
2023-02-15T00:21:25.759Z,995.53
2023-02-15T00:21:58.710Z,995.53
2023-02-15T00:22:29.951Z,995.63
2023-02-15T00:23:02.954Z,995.63
2023-02-15T00:23:33.808Z,995.33
2023-02-15T00:24:06.716Z,995.33
2023-02-15T00:24:37.980Z,995.63
2023-02-15T00:25:10.916Z,995.63
2023-02-15T00:25:41.930Z,995.33
2023-02-15T00:26:14.921Z,995.33
2023-02-15T00:26:46.063Z,995.63
2023-02-15T00:27:18.813Z,995.63
2023-02-15T00:27:49.940Z,995.43
2023-02-15T00:28:22.942Z,995.53
2023-02-15T00:28:53.866Z,995.53
2023-02-15T00:29:26.643Z,995.53
2023-02-15T00:29:57.973Z,995.53
2023-02-15T00:30:31.918Z,995.33
2023-02-15T00:31:02.106Z,995.33
2023-02-15T00:31:35.010Z,995.53
2023-02-15T00:32:05.976Z,995.53
2023-02-15T00:32:38.820Z,995.63
2023-02-15T00:33:09.847Z,995.63
2023-02-15T00:33:42.881Z,995.33
2023-02-15T00:34:14.032Z,995.33
2023-02-15T00:34:46.559Z,995.33
2023-02-15T00:35:18.157Z,995.33
2023-02-15T00:35:50.781Z,995.43
2023-02-15T00:36:21.927Z,995.63
2023-02-15T00:36:54.907Z,995.63
2023-02-15T00:37:25.920Z,995.43
2023-02-15T00:37:59.026Z,995.43
2023-02-15T00:38:29.961Z,995.22
2023-02-15T00:39:02.606Z,995.22
2023-02-15T00:39:33.991Z,995.33
2023-02-15T00:40:06.847Z,995.33
2023-02-15T00:40:37.924Z,995.33
2023-02-15T00:41:10.724Z,995.33
2023-02-15T00:41:41.756Z,995.33
2023-02-15T00:42:14.650Z,995.33
2023-02-15T00:42:46.014Z,995.43
2023-02-15T00:43:18.882Z,995.43
2023-02-15T00:43:49.781Z,995.53
2023-02-15T00:44:22.704Z,995.22
2023-02-15T00:44:53.842Z,995.22
2023-02-15T00:45:27.980Z,995.33
2023-02-15T00:45:58.075Z,995.33
2023-02-15T00:46:30.772Z,995.22
2023-02-15T00:47:01.915Z,995.22
2023-02-15T00:47:34.799Z,995.33
2023-02-15T00:48:05.928Z,995.33
2023-02-15T00:48:38.775Z,995.33
2023-02-15T00:49:09.804Z,995.33
2023-02-15T00:49:42.757Z,995.43
2023-02-15T00:50:14.295Z,995.43
2023-02-15T00:50:46.765Z,995.43
2023-02-15T00:51:17.739Z,995.43
2023-02-15T00:51:50.884Z,995.33
2023-02-15T00:52:22.028Z,995.43
2023-02-15T00:52:54.813Z,995.43
2023-02-15T00:53:25.824Z,995.22
2023-02-15T00:53:58.672Z,995.22
2023-02-15T00:54:29.923Z,995.22
2023-02-15T00:55:02.915Z,995.22
2023-02-15T00:55:33.890Z,995.33
2023-02-15T00:56:06.721Z,995.33
2023-02-15T00:56:37.810Z,995.33
2023-02-15T00:56:54.014Z,995.33
2023-02-15T00:57:25.937Z,995.22
2023-02-15T00:57:57.893Z,995.22
2023-02-15T00:58:30.676Z,995.22
2023-02-15T00:59:01.969Z,995.22
2023-02-15T00:59:34.622Z,995.43
2023-02-15T01:00:07.209Z,995.43
2023-02-15T01:00:38.842Z,995.43
2023-02-15T01:01:09.852Z,995.43
2023-02-15T01:01:43.660Z,995.33
2023-02-15T01:02:13.936Z,995.33
2023-02-15T01:02:46.913Z,995.33
2023-02-15T01:03:17.835Z,995.33
2023-02-15T01:03:50.672Z,995.43
2023-02-15T01:04:22.022Z,995.33
2023-02-15T01:04:54.965Z,995.33
2023-02-15T01:05:26.129Z,995.22
2023-02-15T01:05:58.996Z,995.22
2023-02-15T01:06:30.097Z,995.22
2023-02-15T01:07:02.720Z,995.22
2023-02-15T01:07:33.980Z,995.02
2023-02-15T01:08:06.944Z,995.02
2023-02-15T01:08:37.776Z,995.43
2023-02-15T01:09:10.637Z,995.43
2023-02-15T01:09:41.908Z,995.22
2023-02-15T01:10:14.944Z,995.22
2023-02-15T01:10:45.917Z,995.02
2023-02-15T01:11:18.720Z,995.02
2023-02-15T01:11:49.940Z,995.43
2023-02-15T01:12:22.688Z,995.12
2023-02-15T01:12:53.867Z,995.12
2023-02-15T01:13:26.760Z,995.12
2023-02-15T01:13:57.758Z,995.12
2023-02-15T01:14:30.623Z,995.12
2023-02-15T01:15:03.415Z,995.12
2023-02-15T01:15:34.962Z,995.02
2023-02-15T01:16:06.156Z,995.02
2023-02-15T01:16:38.716Z,995.22
2023-02-15T01:17:10.003Z,995.22
2023-02-15T01:17:43.017Z,995.12
2023-02-15T01:18:13.946Z,995.12
2023-02-15T01:18:46.773Z,994.92
2023-02-15T01:19:17.781Z,994.92
2023-02-15T01:19:50.666Z,995.02
2023-02-15T01:20:22.205Z,995.02
2023-02-15T01:20:54.724Z,995.02
2023-02-15T01:21:25.832Z,995.12
2023-02-15T01:21:58.925Z,995.12
2023-02-15T01:22:29.926Z,995.22
2023-02-15T01:23:02.648Z,995.22
2023-02-15T01:23:33.991Z,995.02
2023-02-15T01:24:06.747Z,995.02
2023-02-15T01:24:38.078Z,995.12
2023-02-15T01:25:11.113Z,995.12
2023-02-15T01:25:41.947Z,995.22
2023-02-15T01:26:14.756Z,995.22
2023-02-15T01:26:45.878Z,995.12
2023-02-15T01:27:18.856Z,995.12
2023-02-15T01:27:49.996Z,995.12
2023-02-15T01:28:22.891Z,995.33
2023-02-15T01:28:53.780Z,995.33
2023-02-15T01:29:26.644Z,995.12
2023-02-15T01:29:58.000Z,995.12
2023-02-15T01:30:32.010Z,994.82
2023-02-15T01:31:01.995Z,994.82
2023-02-15T01:31:35.013Z,994.82
2023-02-15T01:32:06.250Z,994.82
2023-02-15T01:32:38.832Z,995.12
2023-02-15T01:33:09.883Z,995.12
2023-02-15T01:33:42.836Z,995.12
2023-02-15T01:34:13.730Z,995.12
2023-02-15T01:34:46.627Z,995.12
2023-02-15T01:35:18.290Z,995.12
2023-02-15T01:35:50.722Z,995.12
2023-02-15T01:36:22.001Z,994.82
2023-02-15T01:36:54.770Z,994.82
2023-02-15T01:37:26.086Z,995.22
2023-02-15T01:37:58.654Z,995.22
2023-02-15T01:38:29.916Z,995.12
2023-02-15T01:39:02.779Z,995.12
2023-02-15T01:39:33.789Z,994.92
2023-02-15T01:40:06.919Z,994.92
2023-02-15T01:40:37.997Z,995.02
2023-02-15T01:41:10.742Z,995.02
2023-02-15T01:41:41.896Z,995.12
2023-02-15T01:42:15.036Z,995.12
2023-02-15T01:42:46.026Z,995.22
2023-02-15T01:43:18.554Z,995.22
2023-02-15T01:43:49.907Z,995.12
2023-02-15T01:44:22.847Z,994.92
2023-02-15T01:44:53.980Z,994.92
2023-02-15T01:45:27.936Z,995.02
2023-02-15T01:45:58.038Z,995.02
2023-02-15T01:46:31.139Z,994.72
2023-02-15T01:47:01.803Z,994.72
2023-02-15T01:47:34.864Z,994.92
2023-02-15T01:48:05.945Z,994.92
2023-02-15T01:48:38.785Z,995.12
2023-02-15T01:49:09.800Z,995.12
2023-02-15T01:49:42.630Z,994.82
2023-02-15T01:50:14.343Z,994.82
2023-02-15T01:50:46.763Z,994.82
2023-02-15T01:51:17.929Z,994.82
2023-02-15T01:51:50.944Z,994.72
2023-02-15T01:52:22.017Z,994.72
2023-02-15T01:52:54.932Z,994.72
2023-02-15T01:53:25.844Z,994.82
2023-02-15T01:53:59.774Z,994.82
2023-02-15T01:54:29.786Z,994.72
2023-02-15T01:55:03.276Z,994.72
2023-02-15T01:55:33.919Z,994.82
2023-02-15T01:56:06.682Z,994.82
2023-02-15T01:56:37.824Z,994.92
2023-02-15T01:56:54.154Z,994.92
2023-02-15T01:57:25.823Z,994.82
2023-02-15T01:57:57.943Z,994.82
2023-02-15T01:58:29.967Z,994.82
2023-02-15T01:59:01.914Z,994.82
2023-02-15T01:59:34.659Z,994.82
2023-02-15T02:00:07.935Z,994.82
2023-02-15T02:00:38.899Z,994.51
2023-02-15T02:01:09.928Z,994.51
2023-02-15T02:01:44.836Z,994.61
2023-02-15T02:02:13.938Z,994.61
2023-02-15T02:02:46.655Z,994.82
2023-02-15T02:03:17.991Z,994.82
2023-02-15T02:03:50.658Z,994.61
2023-02-15T02:04:22.011Z,994.72
2023-02-15T02:04:54.670Z,994.72
2023-02-15T02:05:26.253Z,994.72
2023-02-15T02:05:59.027Z,994.72
2023-02-15T02:06:29.809Z,995.02
2023-02-15T02:07:02.629Z,995.02
2023-02-15T02:07:34.166Z,994.82
2023-02-15T02:08:07.062Z,994.82
2023-02-15T02:08:37.896Z,994.92
2023-02-15T02:08:54.020Z,994.92
2023-02-15T02:09:25.812Z,994.51
2023-02-15T02:09:57.874Z,994.51
2023-02-15T02:10:30.305Z,994.82
2023-02-15T02:11:01.817Z,994.82
2023-02-15T02:11:34.583Z,994.72
2023-02-15T02:12:05.912Z,994.72
2023-02-15T02:12:39.013Z,994.72
2023-02-15T02:13:09.868Z,994.72
2023-02-15T02:13:42.678Z,994.72
2023-02-15T02:14:13.962Z,994.72
2023-02-15T02:14:46.702Z,994.61
2023-02-15T02:15:18.833Z,994.61
2023-02-15T02:15:50.994Z,994.51
2023-02-15T02:16:22.108Z,994.82
2023-02-15T02:16:55.550Z,994.82
2023-02-15T02:17:25.932Z,994.72
2023-02-15T02:17:59.030Z,994.72
2023-02-15T02:18:29.804Z,994.61
2023-02-15T02:19:02.813Z,994.61
2023-02-15T02:19:33.917Z,994.82
2023-02-15T02:20:07.244Z,994.82
2023-02-15T02:20:37.918Z,994.82
2023-02-15T02:21:10.587Z,994.82
2023-02-15T02:21:42.000Z,994.72
2023-02-15T02:22:14.794Z,994.72
2023-02-15T02:22:45.876Z,994.61
2023-02-15T02:23:18.935Z,994.61
2023-02-15T02:23:50.121Z,994.72
2023-02-15T02:24:22.696Z,994.82
2023-02-15T02:24:53.933Z,994.82
2023-02-15T02:25:27.056Z,994.72
2023-02-15T02:25:57.880Z,994.72
2023-02-15T02:26:30.793Z,994.51
2023-02-15T02:27:01.986Z,994.51
2023-02-15T02:27:34.913Z,994.72
2023-02-15T02:28:05.879Z,994.72
2023-02-15T02:28:38.722Z,994.72
2023-02-15T02:29:09.933Z,994.72
2023-02-15T02:29:42.644Z,994.82
2023-02-15T02:30:14.910Z,994.82
2023-02-15T02:30:46.942Z,994.61
2023-02-15T02:31:18.189Z,994.61
2023-02-15T02:31:50.745Z,994.41
2023-02-15T02:32:21.920Z,994.82
2023-02-15T02:32:54.924Z,994.82
2023-02-15T02:33:25.794Z,994.51
2023-02-15T02:33:59.750Z,994.51
2023-02-15T02:34:29.928Z,994.61
2023-02-15T02:35:03.092Z,994.61
2023-02-15T02:35:33.856Z,994.61
2023-02-15T02:36:06.607Z,994.61
2023-02-15T02:36:38.061Z,994.61
2023-02-15T02:37:10.655Z,994.61
2023-02-15T02:37:41.908Z,994.61
2023-02-15T02:38:15.069Z,994.61
2023-02-15T02:38:45.830Z,994.61
2023-02-15T02:39:18.537Z,994.61
2023-02-15T02:39:49.990Z,994.41
2023-02-15T02:40:23.029Z,994.31
2023-02-15T02:40:53.930Z,994.31
2023-02-15T02:41:26.747Z,994.51
2023-02-15T02:41:58.064Z,994.51
2023-02-15T02:42:31.638Z,994.61
2023-02-15T02:43:01.992Z,994.61
2023-02-15T02:43:34.614Z,994.51
2023-02-15T02:44:05.956Z,994.51
2023-02-15T02:44:39.411Z,994.82
2023-02-15T02:45:10.938Z,994.82
2023-02-15T02:45:42.900Z,994.41
2023-02-15T02:46:14.051Z,994.41
2023-02-15T02:46:46.714Z,994.61
2023-02-15T02:47:17.983Z,994.61
2023-02-15T02:47:50.791Z,994.61
2023-02-15T02:48:21.907Z,994.51
2023-02-15T02:48:54.661Z,994.51
2023-02-15T02:49:26.073Z,994.41
2023-02-15T02:49:58.505Z,994.41
2023-02-15T02:50:30.382Z,994.51
2023-02-15T02:51:02.723Z,994.51
2023-02-15T02:51:33.906Z,994.21
2023-02-15T02:52:06.740Z,994.21
2023-02-15T02:52:37.917Z,994.41
2023-02-15T02:53:10.674Z,994.41
2023-02-15T02:53:41.842Z,994.51
2023-02-15T02:54:14.647Z,994.51
2023-02-15T02:54:46.085Z,994.21
2023-02-15T02:55:18.921Z,994.21
2023-02-15T02:55:49.993Z,994.51
2023-02-15T02:56:22.874Z,994.72
2023-02-15T02:56:53.892Z,994.72
2023-02-15T02:57:26.766Z,994.51
2023-02-15T02:57:58.033Z,994.51
2023-02-15T02:58:30.821Z,994.41
2023-02-15T02:59:01.912Z,994.41
2023-02-15T02:59:34.696Z,994.51
2023-02-15T03:00:07.817Z,994.51
2023-02-15T03:00:38.711Z,994.41
2023-02-15T03:01:09.948Z,994.41
2023-02-15T03:01:42.914Z,994.41
2023-02-15T03:02:14.120Z,994.41
2023-02-15T03:02:46.667Z,994.61
2023-02-15T03:03:17.993Z,994.61
2023-02-15T03:03:50.659Z,994.41
2023-02-15T03:04:21.762Z,994.14
2023-02-15T03:04:54.560Z,994.14
2023-02-15T03:05:26.319Z,994.51
2023-02-15T03:05:58.617Z,994.51
2023-02-15T03:06:29.886Z,994.51
2023-02-15T03:07:02.600Z,994.51
2023-02-15T03:07:34.233Z,994.51
2023-02-15T03:08:06.810Z,994.51
2023-02-15T03:08:37.882Z,994.31
2023-02-15T03:09:10.729Z,994.31
2023-02-15T03:09:41.984Z,994.61
2023-02-15T03:10:16.001Z,994.61
2023-02-15T03:10:45.868Z,994.51
2023-02-15T03:11:18.781Z,994.51
2023-02-15T03:11:49.865Z,994.31
2023-02-15T03:12:22.731Z,994.51
2023-02-15T03:12:53.955Z,994.51
2023-02-15T03:13:26.844Z,994.41
2023-02-15T03:13:57.864Z,994.41
2023-02-15T03:14:30.725Z,994.72
2023-02-15T03:15:03.317Z,994.72
2023-02-15T03:15:34.797Z,994.41
2023-02-15T03:16:05.992Z,994.41
2023-02-15T03:16:38.867Z,994.51
2023-02-15T03:17:09.878Z,994.51
2023-02-15T03:17:42.649Z,994.61
2023-02-15T03:18:13.955Z,994.61
2023-02-15T03:18:46.791Z,994.51
2023-02-15T03:19:17.866Z,994.51
2023-02-15T03:19:50.634Z,994.41
2023-02-15T03:20:22.331Z,994.31
2023-02-15T03:20:54.545Z,994.31
2023-02-15T03:21:25.958Z,994.61
2023-02-15T03:21:58.886Z,994.61
2023-02-15T03:22:30.045Z,994.51
2023-02-15T03:23:04.226Z,994.51
2023-02-15T03:23:33.926Z,994.51
2023-02-15T03:24:06.789Z,994.51
2023-02-15T03:24:38.019Z,994.51
2023-02-15T03:25:11.019Z,994.51
2023-02-15T03:25:42.023Z,994.51
2023-02-15T03:26:14.755Z,994.51
2023-02-15T03:26:45.866Z,994.41
2023-02-15T03:27:18.878Z,994.41
2023-02-15T03:27:50.055Z,994.61
2023-02-15T03:28:22.752Z,994.51
2023-02-15T03:28:53.907Z,994.51
2023-02-15T03:29:26.909Z,994.41
2023-02-15T03:29:58.228Z,994.41
2023-02-15T03:30:32.033Z,994.51
2023-02-15T03:31:02.046Z,994.51
2023-02-15T03:31:34.983Z,994.51
2023-02-15T03:32:06.157Z,994.51
2023-02-15T03:32:38.966Z,994.41
2023-02-15T03:33:09.912Z,994.41
2023-02-15T03:33:42.715Z,994.41
2023-02-15T03:34:13.879Z,994.41
2023-02-15T03:34:46.999Z,994.31
2023-02-15T03:35:18.282Z,994.31
2023-02-15T03:35:51.673Z,994.31
2023-02-15T03:36:22.025Z,994.31
2023-02-15T03:36:54.950Z,994.31
2023-02-15T03:37:25.822Z,994.61
2023-02-15T03:37:58.978Z,994.61
2023-02-15T03:38:29.960Z,994.51
2023-02-15T03:39:02.862Z,994.51
2023-02-15T03:39:33.882Z,994.61
2023-02-15T03:40:06.857Z,994.61
2023-02-15T03:40:38.100Z,994.51
2023-02-15T03:41:10.707Z,994.51
2023-02-15T03:41:41.954Z,994.31
2023-02-15T03:42:14.913Z,994.31
2023-02-15T03:42:46.103Z,994.41
2023-02-15T03:43:18.722Z,994.41
2023-02-15T03:43:50.135Z,994.31
2023-02-15T03:44:22.888Z,994.31
2023-02-15T03:44:53.769Z,994.31
2023-02-15T03:45:27.962Z,994.41
2023-02-15T03:45:58.134Z,994.41
2023-02-15T03:46:30.917Z,994.51
2023-02-15T03:47:01.871Z,994.51
2023-02-15T03:47:34.925Z,994.31
2023-02-15T03:48:06.047Z,994.31
2023-02-15T03:48:39.751Z,994.41
2023-02-15T03:49:09.925Z,994.41
2023-02-15T03:49:43.019Z,994.31
2023-02-15T03:50:14.227Z,994.31
2023-02-15T03:50:46.661Z,994.31
2023-02-15T03:51:17.976Z,994.31
2023-02-15T03:51:50.655Z,994.51
2023-02-15T03:52:21.903Z,994.51
2023-02-15T03:52:54.904Z,994.51
2023-02-15T03:53:26.026Z,994.41
2023-02-15T03:53:58.499Z,994.41
2023-02-15T03:54:29.928Z,994.72
2023-02-15T03:55:03.032Z,994.72
2023-02-15T03:55:33.900Z,994.51
2023-02-15T03:56:06.708Z,994.51
2023-02-15T03:56:37.910Z,994.41
2023-02-15T03:57:10.924Z,994.41
2023-02-15T03:57:41.955Z,994.51
2023-02-15T03:58:14.659Z,994.51
2023-02-15T03:58:45.959Z,994.31
2023-02-15T03:59:18.850Z,994.31
2023-02-15T03:59:49.933Z,994.61
2023-02-15T04:00:23.910Z,994.41
2023-02-15T04:00:53.934Z,994.41
2023-02-15T04:01:26.653Z,994.41
2023-02-15T04:01:57.912Z,994.41
2023-02-15T04:02:30.977Z,994.61
2023-02-15T04:03:01.843Z,994.61
2023-02-15T04:03:34.625Z,994.41
2023-02-15T04:04:06.039Z,994.41
2023-02-15T04:04:39.124Z,994.21
2023-02-15T04:05:10.146Z,994.21
2023-02-15T04:05:42.771Z,994.61
2023-02-15T04:06:13.967Z,994.61
2023-02-15T04:06:47.504Z,994.51
2023-02-15T04:07:17.984Z,994.51
2023-02-15T04:07:50.868Z,994.61
2023-02-15T04:08:22.060Z,994.51
2023-02-15T04:08:54.882Z,994.51
2023-02-15T04:09:25.967Z,994.61
2023-02-15T04:09:59.061Z,994.61
2023-02-15T04:10:30.230Z,994.41
2023-02-15T04:11:02.784Z,994.41
2023-02-15T04:11:34.063Z,994.61
2023-02-15T04:12:06.655Z,994.61
2023-02-15T04:12:37.944Z,994.61
2023-02-15T04:13:11.027Z,994.61
2023-02-15T04:13:42.093Z,994.61
2023-02-15T04:14:14.757Z,994.61
2023-02-15T04:14:45.942Z,994.72
2023-02-15T04:15:19.954Z,994.72
2023-02-15T04:15:50.018Z,994.72
2023-02-15T04:16:23.020Z,994.41
2023-02-15T04:16:54.070Z,994.41
2023-02-15T04:17:27.034Z,994.61
2023-02-15T04:17:57.983Z,994.61
2023-02-15T04:18:31.809Z,994.41
2023-02-15T04:19:02.059Z,994.41
2023-02-15T04:19:34.840Z,994.61
2023-02-15T04:20:06.279Z,994.61
2023-02-15T04:20:38.977Z,994.51
2023-02-15T04:21:10.076Z,994.51
2023-02-15T04:21:42.789Z,994.72
2023-02-15T04:22:14.022Z,994.72
2023-02-15T04:22:47.040Z,994.61
2023-02-15T04:23:17.867Z,994.61
2023-02-15T04:23:50.698Z,994.41
2023-02-15T04:24:21.960Z,994.51
2023-02-15T04:24:54.795Z,994.51
2023-02-15T04:25:26.248Z,994.72
2023-02-15T04:25:58.731Z,994.72
2023-02-15T04:26:30.057Z,994.51
2023-02-15T04:27:05.625Z,994.51
2023-02-15T04:27:33.962Z,994.51
2023-02-15T04:28:07.004Z,994.51
2023-02-15T04:28:38.044Z,994.41
2023-02-15T04:29:10.753Z,994.41
2023-02-15T04:29:41.996Z,994.72
2023-02-15T04:30:15.928Z,994.72
2023-02-15T04:30:46.027Z,994.72
2023-02-15T04:31:18.876Z,994.72
2023-02-15T04:31:50.218Z,994.61
2023-02-15T04:32:23.841Z,994.72
2023-02-15T04:32:53.999Z,994.72
2023-02-15T04:33:26.828Z,994.61
2023-02-15T04:33:58.085Z,994.61
2023-02-15T04:34:30.922Z,994.61
2023-02-15T04:35:02.331Z,994.61
2023-02-15T04:35:34.934Z,994.61
2023-02-15T04:36:05.886Z,994.61
2023-02-15T04:36:38.815Z,994.51
2023-02-15T04:37:09.979Z,994.51
2023-02-15T04:37:42.898Z,994.72
2023-02-15T04:38:14.275Z,994.72
2023-02-15T04:38:48.015Z,994.82
2023-02-15T04:39:17.960Z,994.82
2023-02-15T04:39:50.907Z,994.72
2023-02-15T04:40:22.224Z,994.61
2023-02-15T04:40:54.909Z,994.61
2023-02-15T04:41:25.822Z,994.51
2023-02-15T04:41:58.796Z,994.51
2023-02-15T04:42:29.862Z,994.61
2023-02-15T04:43:03.879Z,994.61
2023-02-15T04:43:33.855Z,994.61
2023-02-15T04:44:06.698Z,994.61
2023-02-15T04:44:37.978Z,994.51
2023-02-15T04:45:11.643Z,994.51
2023-02-15T04:45:42.120Z,994.61
2023-02-15T04:46:14.942Z,994.61
2023-02-15T04:46:45.979Z,994.51
2023-02-15T04:47:18.895Z,994.51
2023-02-15T04:47:49.948Z,994.82
2023-02-15T04:48:23.092Z,994.41
2023-02-15T04:48:54.022Z,994.41
2023-02-15T04:49:26.903Z,994.51
2023-02-15T04:49:58.286Z,994.51
2023-02-15T04:50:31.351Z,994.82
2023-02-15T04:51:01.999Z,994.82
2023-02-15T04:51:41.959Z,994.61
2023-02-15T04:52:06.074Z,994.61
2023-02-15T04:52:37.903Z,994.51
2023-02-15T04:53:10.723Z,994.51
2023-02-15T04:53:42.151Z,994.61
2023-02-15T04:54:14.947Z,994.61
2023-02-15T04:54:45.993Z,994.61
2023-02-15T04:55:18.878Z,994.61
2023-02-15T04:55:50.119Z,994.61
2023-02-15T04:56:22.756Z,994.51
2023-02-15T04:56:53.927Z,994.51
2023-02-15T04:57:26.811Z,994.51
2023-02-15T04:57:57.907Z,994.51
2023-02-15T04:58:33.799Z,994.21
2023-02-15T04:59:01.983Z,994.21
2023-02-15T04:59:34.750Z,994.41
2023-02-15T05:00:07.485Z,994.41
2023-02-15T05:00:39.166Z,994.31
2023-02-15T05:01:10.018Z,994.31
2023-02-15T05:01:42.679Z,994.31
2023-02-15T05:02:13.987Z,994.31
2023-02-15T05:02:47.077Z,994.31
2023-02-15T05:03:19.679Z,994.31
2023-02-15T05:03:50.739Z,994.41
2023-02-15T05:04:22.022Z,994.41
2023-02-15T05:04:54.771Z,994.41
2023-02-15T05:05:26.205Z,994.14
2023-02-15T05:05:58.804Z,994.14
2023-02-15T05:06:29.760Z,994.21
2023-02-15T05:07:03.048Z,994.21
2023-02-15T05:07:34.121Z,994.41
2023-02-15T05:08:06.852Z,994.41
2023-02-15T05:08:38.031Z,994.14
2023-02-15T05:09:10.805Z,994.14
2023-02-15T05:09:41.947Z,994.31
2023-02-15T05:10:15.160Z,994.31
2023-02-15T05:10:46.020Z,994.21
2023-02-15T05:11:18.972Z,994.21
2023-02-15T05:11:50.011Z,994.31
2023-02-15T05:12:22.925Z,994.21
2023-02-15T05:12:54.013Z,994.21
2023-02-15T05:13:27.000Z,994.14
2023-02-15T05:13:57.973Z,994.14
2023-02-15T05:14:31.797Z,994.21
2023-02-15T05:15:03.465Z,994.21
2023-02-15T05:15:34.866Z,994.21
2023-02-15T05:16:06.048Z,994.21
2023-02-15T05:16:38.724Z,994.31
2023-02-15T05:17:09.929Z,994.31
2023-02-15T05:17:42.927Z,994.14
2023-02-15T05:18:13.895Z,994.14
2023-02-15T05:18:46.648Z,994.31
2023-02-15T05:19:17.973Z,994.31
2023-02-15T05:19:50.723Z,994.31
2023-02-15T05:20:22.217Z,994.21
2023-02-15T05:20:54.861Z,994.21
2023-02-15T05:21:25.999Z,994.31
2023-02-15T05:21:59.523Z,994.31
2023-02-15T05:22:29.983Z,994.31
2023-02-15T05:23:02.930Z,994.31
2023-02-15T05:23:33.968Z,994.41
2023-02-15T05:24:07.793Z,994.41
2023-02-15T05:24:38.041Z,994.51
2023-02-15T05:25:11.072Z,994.51
2023-02-15T05:25:41.978Z,994.31
2023-02-15T05:26:14.805Z,994.31
2023-02-15T05:26:46.075Z,994.41
2023-02-15T05:27:18.887Z,994.41
2023-02-15T05:27:49.955Z,994.21
2023-02-15T05:28:23.629Z,994.41
2023-02-15T05:28:54.041Z,994.41
2023-02-15T05:29:26.901Z,994.21
2023-02-15T05:29:58.103Z,994.21
2023-02-15T05:30:32.310Z,994.41
2023-02-15T05:31:02.384Z,994.41
2023-02-15T05:31:35.110Z,994.31
2023-02-15T05:32:06.088Z,994.31
2023-02-15T05:32:39.182Z,994.31
2023-02-15T05:33:09.818Z,994.31
2023-02-15T05:33:42.672Z,994.41
2023-02-15T05:34:14.020Z,994.41
2023-02-15T05:34:46.962Z,994.21
2023-02-15T05:35:18.216Z,994.21
2023-02-15T05:35:51.833Z,994.41
2023-02-15T05:36:22.128Z,994.31
2023-02-15T05:36:54.729Z,994.31
2023-02-15T05:37:25.847Z,994.31
2023-02-15T05:37:58.743Z,994.31
2023-02-15T05:38:29.991Z,994.14
2023-02-15T05:39:02.643Z,994.14
2023-02-15T05:39:33.898Z,994.51
2023-02-15T05:40:07.169Z,994.51
2023-02-15T05:40:37.881Z,994.31
2023-02-15T05:40:54.451Z,994.31
2023-02-15T05:41:25.899Z,994.21
2023-02-15T05:41:57.948Z,994.21
2023-02-15T05:42:30.079Z,994.21
2023-02-15T05:43:02.110Z,994.21
2023-02-15T05:43:33.901Z,994.21
2023-02-15T05:44:06.034Z,994.21
2023-02-15T05:44:38.028Z,994.04
2023-02-15T05:45:11.094Z,994.04
2023-02-15T05:45:43.091Z,994.14
2023-02-15T05:46:14.110Z,994.14
2023-02-15T05:46:46.703Z,994.21
2023-02-15T05:47:17.957Z,994.21
2023-02-15T05:47:50.936Z,994.04
2023-02-15T05:48:22.060Z,994.04
2023-02-15T05:48:54.897Z,994.04
2023-02-15T05:49:25.951Z,994.04
2023-02-15T05:49:58.799Z,994.04
2023-02-15T05:50:30.427Z,994.04
2023-02-15T05:51:02.711Z,994.04
2023-02-15T05:51:34.065Z,994.14
2023-02-15T05:52:06.812Z,994.14
2023-02-15T05:52:37.908Z,994.14
2023-02-15T05:52:54.214Z,994.14
2023-02-15T05:53:25.797Z,994.31
2023-02-15T05:53:57.939Z,994.31
2023-02-15T05:54:30.075Z,994.21
2023-02-15T05:55:02.420Z,994.21
2023-02-15T05:55:33.941Z,994.04
2023-02-15T05:56:06.081Z,994.04
2023-02-15T05:56:38.025Z,994.04
2023-02-15T05:57:09.927Z,994.04
2023-02-15T05:57:43.012Z,993.94
2023-02-15T05:58:13.975Z,993.94
2023-02-15T05:58:46.628Z,994.04
2023-02-15T05:59:17.939Z,994.04
2023-02-15T05:59:50.797Z,994.21
2023-02-15T06:00:23.541Z,994.14
2023-02-15T06:00:54.967Z,994.14
2023-02-15T06:01:26.041Z,994.14
2023-02-15T06:01:59.704Z,994.14
2023-02-15T06:02:29.981Z,994.04
2023-02-15T06:03:03.026Z,994.04
2023-02-15T06:03:34.000Z,994.14
2023-02-15T06:04:07.015Z,994.14
2023-02-15T06:04:37.912Z,993.94
2023-02-15T06:05:11.081Z,993.94
2023-02-15T06:05:42.071Z,994.04
2023-02-15T06:06:14.637Z,994.04
2023-02-15T06:06:46.038Z,993.94
2023-02-15T06:07:19.900Z,993.94
2023-02-15T06:07:50.016Z,994.04
2023-02-15T06:08:22.688Z,994.14
2023-02-15T06:08:54.036Z,994.14
2023-02-15T06:09:27.125Z,994.21
2023-02-15T06:09:57.863Z,994.21
2023-02-15T06:10:31.363Z,993.94
2023-02-15T06:11:02.051Z,993.94
2023-02-15T06:11:35.093Z,993.94
2023-02-15T06:12:06.005Z,993.94
2023-02-15T06:12:22.084Z,994.21
2023-02-15T06:12:53.923Z,994.21
2023-02-15T06:13:25.937Z,993.94
2023-02-15T06:13:58.107Z,993.94
2023-02-15T06:14:30.063Z,993.94
2023-02-15T06:15:03.437Z,993.94
2023-02-15T06:15:34.151Z,994.04
2023-02-15T06:16:06.270Z,994.04
2023-02-15T06:16:37.902Z,994.31
2023-02-15T06:16:54.867Z,994.31
2023-02-15T06:17:25.914Z,994.04
2023-02-15T06:17:58.822Z,994.04
2023-02-15T06:18:29.998Z,994.04
2023-02-15T06:19:03.011Z,994.04
2023-02-15T06:19:33.846Z,994.04
2023-02-15T06:20:07.102Z,994.04
2023-02-15T06:20:38.012Z,994.04
2023-02-15T06:21:10.805Z,994.04
2023-02-15T06:21:41.932Z,994.14
2023-02-15T06:22:15.108Z,994.14
2023-02-15T06:22:46.083Z,994.14
2023-02-15T06:23:18.749Z,994.14
2023-02-15T06:23:49.956Z,994.21
2023-02-15T06:24:23.024Z,994.21
2023-02-15T06:24:53.913Z,994.21
2023-02-15T06:25:29.880Z,994.04
2023-02-15T06:25:58.030Z,994.04
2023-02-15T06:26:30.893Z,994.14
2023-02-15T06:27:01.986Z,994.14
2023-02-15T06:27:34.895Z,994.14
2023-02-15T06:28:06.027Z,994.14
2023-02-15T06:28:38.825Z,994.21
2023-02-15T06:29:10.020Z,994.21
2023-02-15T06:29:42.989Z,994.31
2023-02-15T06:30:14.816Z,994.31
2023-02-15T06:30:46.836Z,994.14
2023-02-15T06:31:18.074Z,994.14
2023-02-15T06:31:51.158Z,994.41
2023-02-15T06:32:21.935Z,994.31
2023-02-15T06:32:54.905Z,994.31
2023-02-15T06:33:26.077Z,994.21
2023-02-15T06:33:59.044Z,994.21
2023-02-15T06:34:29.973Z,994.41
2023-02-15T06:35:03.194Z,994.41
2023-02-15T06:35:34.038Z,994.31
2023-02-15T06:36:06.796Z,994.31
2023-02-15T06:36:38.003Z,994.51
2023-02-15T06:37:10.924Z,994.51